Flight Track Log - Related Links

Times and Time Zones

All times are in EDT time to prevent confusion due to time zone crossing. See the KAP910 flight status page for this flight to view local times or setup timezone preferences in your user account.


Time Position Orientation Groundspeed Altitude Reporting Facility
EDT Latitude Longitude Course Direction KTS MPH feet Rate Location/Type
Thu 12:41:02 PM 42.3500 -71.0333 237° Southwest 113 130 1,000  Level KA90
Thu 12:42:02 PM 42.3167 -71.0500 200° South 119 137 1,700 645 Climbing KA90
Thu 12:43:03 PM 42.2833 -71.0833 216° Southwest 118 136 2,300 584 Climbing KA90
Thu 12:43:55 PM 42.2667 -71.0833 180° South 131 151 2,800 643 Climbing KA90
Thu 12:44:55 PM 42.2333 -71.0500 143° Southeast 138 159 3,500 694 Climbing KA90
Thu 12:45:56 PM 42.2167 -71.0000 114° Southeast 128 147 4,200 655 Climbing KA90
Thu 12:46:54 PM 42.1833 -70.9667 143° Southeast 129 148 4,800 403 Climbing KA90
Thu 12:47:55 PM 42.1667 -70.9333 124° Southeast 141 162 5,000 197 Climbing KA90
Thu 12:49:00 PM 42.1362 -70.9037 144° Southeast  Level Estimated
Thu 12:56:00 PM 41.9389 -70.7128 144° Southeast  Level Estimated
Thu 12:57:00 PM 41.9108 -70.6856 144° Southeast  Level Estimated
Thu 12:58:00 PM 41.8825 -70.6585 144° Southeast  Level Estimated
Thu 12:59:00 PM 41.8543 -70.6313 144° Southeast  Level Estimated
Thu 01:00:00 PM 41.8261 -70.6042 144° Southeast  Level Estimated
Thu 01:01:00 PM 41.7979 -70.5772 144° Southeast  Level Estimated
Thu 01:02:00 PM 41.7696 -70.5501 144° Southeast  Level Estimated
Thu 01:03:00 PM 41.7414 -70.5231 144° Southeast  Level Estimated
Thu 01:04:00 PM 41.7132 -70.4961 144° Southeast  Level Estimated
Thu 01:05:00 PM 41.6849 -70.4691 144° Southeast  Level Estimated
Thu 01:06:00 PM 41.6567 -70.4421 145° Southeast  Level Estimated
Thu 01:07:00 PM 41.6284 -70.4152 145° Southeast  Level Estimated
Thu 01:08:00 PM 41.6001 -70.3883 145° Southeast  Level Estimated
Thu 01:09:00 PM 41.5718 -70.3614 145° Southeast  Level Estimated
Thu 01:10:00 PM 41.5436 -70.3345 145° Southeast  Level Estimated
Thu 01:11:00 PM 41.5153 -70.3077 145° Southeast  Level Estimated
Thu 01:12:00 PM 41.4870 -70.2809 145° Southeast  Level Estimated
Thu 01:13:00 PM 41.4587 -70.2541 145° Southeast  Level Estimated
Thu 01:14:00 PM 41.4304 -70.2273 145° Southeast  Level Estimated
Thu 01:15:00 PM 41.4021 -70.2005 145° Southeast  Level Estimated
Thu 01:16:00 PM 41.3737 -70.1738 145° Southeast  Level Estimated
Thu 01:17:00 PM 41.3454 -70.1471 145° Southeast  Level Estimated
Thu 01:18:00 PM 41.3171 -70.1205 145° Southeast  Level Estimated
Thu 01:19:00 PM 41.2887 -70.0938 145° Southeast  Level Estimated
Thu 01:20:00 PM 41.2604 -70.0672 145° Southeast  Level Estimated
Thu 01:21:00 PM 41.2531 -70.0603 145° Southeast  Level Estimated

Login

Don't have an account? Register now (free) for customized features, flight alerts, and more!